sensor_id;sensor_type;location;lat;lon;timestamp;P1;durP1;ratioP1;P2;durP2;ratioP2
7613;SDS011;3848;42.016;23.098;2022-08-01T00:01:51;8.17;;;7.37;;
7613;SDS011;3848;42.016;23.098;2022-08-01T00:04:18;9.00;;;7.17;;
7613;SDS011;3848;42.016;23.098;2022-08-01T00:06:45;12.03;;;7.30;;
7613;SDS011;3848;42.016;23.098;2022-08-01T00:09:13;9.97;;;7.50;;
7613;SDS011;3848;42.016;23.098;2022-08-01T00:11:40;9.77;;;7.43;;
7613;SDS011;3848;42.016;23.098;2022-08-01T00:14:08;9.03;;;7.87;;
7613;SDS011;3848;42.016;23.098;2022-08-01T00:16:35;7.80;;;7.00;;
7613;SDS011;3848;42.016;23.098;2022-08-01T00:19:02;10.17;;;7.20;;
7613;SDS011;3848;42.016;23.098;2022-08-01T00:21:29;12.73;;;8.23;;
7613;SDS011;3848;42.016;23.098;2022-08-01T00:23:56;11.87;;;7.20;;
7613;SDS011;3848;42.016;23.098;2022-08-01T00:26:25;11.57;;;7.33;;
7613;SDS011;3848;42.016;23.098;2022-08-01T00:28:52;9.00;;;7.83;;
7613;SDS011;3848;42.016;23.098;2022-08-01T00:31:18;10.10;;;8.20;;
7613;SDS011;3848;42.016;23.098;2022-08-01T00:33:45;10.40;;;8.20;;
7613;SDS011;3848;42.016;23.098;2022-08-01T00:36:12;8.63;;;7.83;;
7613;SDS011;3848;42.016;23.098;2022-08-01T00:38:39;8.20;;;7.40;;
7613;SDS011;3848;42.016;23.098;2022-08-01T00:41:06;8.90;;;8.03;;
7613;SDS011;3848;42.016;23.098;2022-08-01T00:43:34;13.27;;;8.00;;
7613;SDS011;3848;42.016;23.098;2022-08-01T00:46:01;11.73;;;7.50;;
7613;SDS011;3848;42.016;23.098;2022-08-01T00:48:28;8.57;;;7.70;;
7613;SDS011;3848;42.016;23.098;2022-08-01T00:50:55;8.60;;;7.70;;
7613;SDS011;3848;42.016;23.098;2022-08-01T00:53:22;8.70;;;7.63;;
7613;SDS011;3848;42.016;23.098;2022-08-01T00:55:50;9.10;;;8.20;;
7613;SDS011;3848;42.016;23.098;2022-08-01T00:58:17;11.70;;;7.27;;
7613;SDS011;3848;42.016;23.098;2022-08-01T01:00:45;8.50;;;7.67;;
7613;SDS011;3848;42.016;23.098;2022-08-01T01:03:12;8.53;;;7.73;;
7613;SDS011;3848;42.016;23.098;2022-08-01T01:05:40;11.73;;;8.00;;
7613;SDS011;3848;42.016;23.098;2022-08-01T01:08:16;8.47;;;7.67;;
7613;SDS011;3848;42.016;23.098;2022-08-01T01:10:52;8.23;;;7.37;;
7613;SDS011;3848;42.016;23.098;2022-08-01T01:13:23;9.47;;;7.60;;
7613;SDS011;3848;42.016;23.098;2022-08-01T01:16:00;9.83;;;7.60;;
7613;SDS011;3848;42.016;23.098;2022-08-01T01:18:32;9.43;;;7.70;;
7613;SDS011;3848;42.016;23.098;2022-08-01T01:21:03;10.83;;;7.43;;
7613;SDS011;3848;42.016;23.098;2022-08-01T01:23:45;10.93;;;8.33;;
7613;SDS011;3848;42.016;23.098;2022-08-01T01:26:26;8.30;;;7.60;;
7613;SDS011;3848;42.016;23.098;2022-08-01T01:29:08;15.30;;;8.10;;
7613;SDS011;3848;42.016;23.098;2022-08-01T01:31:40;9.03;;;8.13;;
7613;SDS011;3848;42.016;23.098;2022-08-01T01:34:11;8.90;;;8.10;;
7613;SDS011;3848;42.016;23.098;2022-08-01T01:36:40;8.37;;;7.57;;
7613;SDS011;3848;42.016;23.098;2022-08-01T01:39:08;9.63;;;8.13;;
7613;SDS011;3848;42.016;23.098;2022-08-01T01:41:36;9.50;;;7.90;;
7613;SDS011;3848;42.016;23.098;2022-08-01T01:44:05;8.97;;;8.17;;
7613;SDS011;3848;42.016;23.098;2022-08-01T01:46:34;8.87;;;7.77;;
7613;SDS011;3848;42.016;23.098;2022-08-01T01:49:03;10.37;;;8.10;;
7613;SDS011;3848;42.016;23.098;2022-08-01T01:51:31;9.00;;;7.53;;
7613;SDS011;3848;42.016;23.098;2022-08-01T01:53:59;10.07;;;8.10;;
7613;SDS011;3848;42.016;23.098;2022-08-01T01:56:28;9.87;;;7.63;;
7613;SDS011;3848;42.016;23.098;2022-08-01T01:58:57;9.57;;;8.57;;
7613;SDS011;3848;42.016;23.098;2022-08-01T02:01:28;11.60;;;8.60;;
7613;SDS011;3848;42.016;23.098;2022-08-01T02:03:58;9.33;;;8.43;;
7613;SDS011;3848;42.016;23.098;2022-08-01T02:06:28;11.13;;;8.10;;
7613;SDS011;3848;42.016;23.098;2022-08-01T02:08:57;13.63;;;8.90;;
7613;SDS011;3848;42.016;23.098;2022-08-01T02:11:27;9.80;;;8.17;;
7613;SDS011;3848;42.016;23.098;2022-08-01T02:13:57;9.57;;;8.67;;
7613;SDS011;3848;42.016;23.098;2022-08-01T02:16:27;10.27;;;8.00;;
7613;SDS011;3848;42.016;23.098;2022-08-01T02:18:56;10.20;;;9.20;;
7613;SDS011;3848;42.016;23.098;2022-08-01T02:21:25;11.70;;;8.50;;
7613;SDS011;3848;42.016;23.098;2022-08-01T02:24:03;9.57;;;8.40;;
7613;SDS011;3848;42.016;23.098;2022-08-01T02:26:36;9.43;;;8.07;;
7613;SDS011;3848;42.016;23.098;2022-08-01T02:29:06;9.00;;;8.13;;
7613;SDS011;3848;42.016;23.098;2022-08-01T02:31:38;9.70;;;8.70;;
7613;SDS011;3848;42.016;23.098;2022-08-01T02:34:10;9.57;;;8.37;;
7613;SDS011;3848;42.016;23.098;2022-08-01T02:36:43;8.63;;;7.73;;
7613;SDS011;3848;42.016;23.098;2022-08-01T02:39:12;8.70;;;7.83;;
7613;SDS011;3848;42.016;23.098;2022-08-01T02:41:42;10.93;;;8.10;;
7613;SDS011;3848;42.016;23.098;2022-08-01T02:44:16;9.20;;;8.00;;
7613;SDS011;3848;42.016;23.098;2022-08-01T02:46:51;10.30;;;8.20;;
7613;SDS011;3848;42.016;23.098;2022-08-01T02:49:22;9.00;;;7.80;;
7613;SDS011;3848;42.016;23.098;2022-08-01T02:51:53;10.87;;;8.33;;
7613;SDS011;3848;42.016;23.098;2022-08-01T02:54:21;8.93;;;8.03;;
7613;SDS011;3848;42.016;23.098;2022-08-01T02:56:50;8.83;;;8.00;;
7613;SDS011;3848;42.016;23.098;2022-08-01T02:59:19;8.70;;;7.87;;
7613;SDS011;3848;42.016;23.098;2022-08-01T03:01:51;13.10;;;8.03;;
7613;SDS011;3848;42.016;23.098;2022-08-01T03:04:20;8.80;;;8.07;;
7613;SDS011;3848;42.016;23.098;2022-08-01T03:06:48;9.77;;;8.57;;
7613;SDS011;3848;42.016;23.098;2022-08-01T03:09:17;15.60;;;8.27;;
7613;SDS011;3848;42.016;23.098;2022-08-01T03:11:45;10.43;;;7.97;;
7613;SDS011;3848;42.016;23.098;2022-08-01T03:14:13;11.13;;;7.83;;
7613;SDS011;3848;42.016;23.098;2022-08-01T03:16:42;11.00;;;9.13;;
7613;SDS011;3848;42.016;23.098;2022-08-01T03:19:12;9.13;;;8.20;;
7613;SDS011;3848;42.016;23.098;2022-08-01T03:21:41;9.83;;;8.00;;
7613;SDS011;3848;42.016;23.098;2022-08-01T03:24:12;9.90;;;8.33;;
7613;SDS011;3848;42.016;23.098;2022-08-01T03:26:42;9.13;;;7.70;;
7613;SDS011;3848;42.016;23.098;2022-08-01T03:29:12;10.70;;;8.27;;
7613;SDS011;3848;42.016;23.098;2022-08-01T03:31:43;8.87;;;7.97;;
7613;SDS011;3848;42.016;23.098;2022-08-01T03:34:11;9.53;;;8.23;;
7613;SDS011;3848;42.016;23.098;2022-08-01T03:36:42;12.60;;;8.70;;
7613;SDS011;3848;42.016;23.098;2022-08-01T03:39:12;10.77;;;8.10;;
7613;SDS011;3848;42.016;23.098;2022-08-01T03:41:43;9.87;;;7.73;;
7613;SDS011;3848;42.016;23.098;2022-08-01T03:44:15;11.13;;;8.50;;
7613;SDS011;3848;42.016;23.098;2022-08-01T03:46:47;13.97;;;9.27;;
7613;SDS011;3848;42.016;23.098;2022-08-01T03:49:17;11.57;;;8.00;;
7613;SDS011;3848;42.016;23.098;2022-08-01T03:51:46;10.47;;;8.00;;
7613;SDS011;3848;42.016;23.098;2022-08-01T03:54:15;16.07;;;8.37;;
7613;SDS011;3848;42.016;23.098;2022-08-01T03:56:47;10.00;;;8.80;;
7613;SDS011;3848;42.016;23.098;2022-08-01T03:59:16;10.37;;;8.37;;
7613;SDS011;3848;42.016;23.098;2022-08-01T04:01:44;12.17;;;8.50;;
7613;SDS011;3848;42.016;23.098;2022-08-01T04:04:12;12.73;;;8.57;;
7613;SDS011;3848;42.016;23.098;2022-08-01T04:06:40;8.90;;;8.00;;
7613;SDS011;3848;42.016;23.098;2022-08-01T04:09:08;13.03;;;8.37;;
7613;SDS011;3848;42.016;23.098;2022-08-01T04:11:35;13.57;;;8.37;;
7613;SDS011;3848;42.016;23.098;2022-08-01T04:14:04;13.37;;;8.33;;
7613;SDS011;3848;42.016;23.098;2022-08-01T04:16:30;9.13;;;8.20;;
7613;SDS011;3848;42.016;23.098;2022-08-01T04:18:57;11.00;;;7.87;;
7613;SDS011;3848;42.016;23.098;2022-08-01T04:21:25;13.43;;;7.83;;
7613;SDS011;3848;42.016;23.098;2022-08-01T04:23:54;9.17;;;8.10;;
7613;SDS011;3848;42.016;23.098;2022-08-01T04:26:24;16.47;;;8.77;;
7613;SDS011;3848;42.016;23.098;2022-08-01T04:28:53;14.07;;;8.83;;
7613;SDS011;3848;42.016;23.098;2022-08-01T04:31:23;12.40;;;8.30;;
7613;SDS011;3848;42.016;23.098;2022-08-01T04:33:52;12.70;;;8.17;;
7613;SDS011;3848;42.016;23.098;2022-08-01T04:36:22;11.87;;;8.17;;
7613;SDS011;3848;42.016;23.098;2022-08-01T04:38:52;13.17;;;8.50;;
7613;SDS011;3848;42.016;23.098;2022-08-01T04:41:23;10.77;;;8.47;;
7613;SDS011;3848;42.016;23.098;2022-08-01T04:43:51;14.37;;;9.23;;
7613;SDS011;3848;42.016;23.098;2022-08-01T04:46:19;15.50;;;8.60;;
7613;SDS011;3848;42.016;23.098;2022-08-01T04:48:48;13.43;;;8.33;;
7613;SDS011;3848;42.016;23.098;2022-08-01T04:51:16;13.77;;;8.73;;
7613;SDS011;3848;42.016;23.098;2022-08-01T04:53:47;12.10;;;7.87;;
7613;SDS011;3848;42.016;23.098;2022-08-01T04:56:16;11.67;;;8.00;;
7613;SDS011;3848;42.016;23.098;2022-08-01T04:58:43;10.27;;;7.30;;
7613;SDS011;3848;42.016;23.098;2022-08-01T05:01:10;14.03;;;8.10;;
7613;SDS011;3848;42.016;23.098;2022-08-01T05:03:37;10.13;;;7.37;;
7613;SDS011;3848;42.016;23.098;2022-08-01T05:06:06;17.07;;;8.10;;
7613;SDS011;3848;42.016;23.098;2022-08-01T05:08:33;10.93;;;8.27;;
7613;SDS011;3848;42.016;23.098;2022-08-01T05:11:01;16.30;;;7.93;;
7613;SDS011;3848;42.016;23.098;2022-08-01T05:13:28;19.70;;;8.83;;
7613;SDS011;3848;42.016;23.098;2022-08-01T05:15:55;12.23;;;8.73;;
7613;SDS011;3848;42.016;23.098;2022-08-01T05:18:22;18.30;;;8.70;;
7613;SDS011;3848;42.016;23.098;2022-08-01T05:20:49;17.67;;;9.00;;
7613;SDS011;3848;42.016;23.098;2022-08-01T05:23:18;17.30;;;8.20;;
7613;SDS011;3848;42.016;23.098;2022-08-01T05:25:45;13.60;;;8.27;;
7613;SDS011;3848;42.016;23.098;2022-08-01T05:28:11;13.53;;;9.40;;
7613;SDS011;3848;42.016;23.098;2022-08-01T05:30:38;22.10;;;9.00;;
7613;SDS011;3848;42.016;23.098;2022-08-01T05:33:05;12.27;;;9.10;;
7613;SDS011;3848;42.016;23.098;2022-08-01T05:35:32;16.37;;;8.53;;
7613;SDS011;3848;42.016;23.098;2022-08-01T05:37:59;17.57;;;9.30;;
7613;SDS011;3848;42.016;23.098;2022-08-01T05:40:28;12.67;;;8.50;;
7613;SDS011;3848;42.016;23.098;2022-08-01T05:42:54;19.17;;;8.63;;
7613;SDS011;3848;42.016;23.098;2022-08-01T05:45:22;15.60;;;7.60;;
7613;SDS011;3848;42.016;23.098;2022-08-01T05:47:48;13.30;;;8.27;;
7613;SDS011;3848;42.016;23.098;2022-08-01T05:50:15;17.43;;;7.43;;
7613;SDS011;3848;42.016;23.098;2022-08-01T05:52:42;21.93;;;7.67;;
7613;SDS011;3848;42.016;23.098;2022-08-01T05:55:09;15.43;;;7.43;;
7613;SDS011;3848;42.016;23.098;2022-08-01T05:57:37;9.90;;;7.30;;
7613;SDS011;3848;42.016;23.098;2022-08-01T06:00:05;20.80;;;6.47;;
7613;SDS011;3848;42.016;23.098;2022-08-01T06:02:32;29.80;;;8.23;;
7613;SDS011;3848;42.016;23.098;2022-08-01T06:04:59;19.83;;;6.73;;
7613;SDS011;3848;42.016;23.098;2022-08-01T06:07:26;16.90;;;7.27;;
7613;SDS011;3848;42.016;23.098;2022-08-01T06:09:53;17.60;;;9.30;;
7613;SDS011;3848;42.016;23.098;2022-08-01T06:12:20;16.43;;;6.90;;
7613;SDS011;3848;42.016;23.098;2022-08-01T06:14:48;10.07;;;7.03;;
7613;SDS011;3848;42.016;23.098;2022-08-01T06:17:15;13.53;;;6.80;;
7613;SDS011;3848;42.016;23.098;2022-08-01T06:19:42;14.67;;;8.20;;
7613;SDS011;3848;42.016;23.098;2022-08-01T06:22:09;14.60;;;7.60;;
7613;SDS011;3848;42.016;23.098;2022-08-01T06:24:36;11.23;;;6.60;;
7613;SDS011;3848;42.016;23.098;2022-08-01T06:27:03;15.30;;;6.47;;
7613;SDS011;3848;42.016;23.098;2022-08-01T06:29:30;12.43;;;6.27;;
7613;SDS011;3848;42.016;23.098;2022-08-01T06:31:58;16.97;;;7.10;;
7613;SDS011;3848;42.016;23.098;2022-08-01T06:34:25;15.70;;;7.10;;
7613;SDS011;3848;42.016;23.098;2022-08-01T06:36:52;16.93;;;6.73;;
7613;SDS011;3848;42.016;23.098;2022-08-01T06:39:19;11.37;;;6.43;;
7613;SDS011;3848;42.016;23.098;2022-08-01T06:41:46;19.40;;;10.30;;
7613;SDS011;3848;42.016;23.098;2022-08-01T06:44:13;12.57;;;7.90;;
7613;SDS011;3848;42.016;23.098;2022-08-01T06:46:40;8.73;;;5.47;;
7613;SDS011;3848;42.016;23.098;2022-08-01T06:49:08;8.43;;;4.73;;
7613;SDS011;3848;42.016;23.098;2022-08-01T06:51:35;6.93;;;5.20;;
7613;SDS011;3848;42.016;23.098;2022-08-01T06:54:02;8.53;;;5.53;;
7613;SDS011;3848;42.016;23.098;2022-08-01T06:56:29;5.30;;;4.77;;
7613;SDS011;3848;42.016;23.098;2022-08-01T06:58:56;10.13;;;4.70;;
7613;SDS011;3848;42.016;23.098;2022-08-01T07:01:26;7.00;;;4.10;;
7613;SDS011;3848;42.016;23.098;2022-08-01T07:03:53;8.07;;;3.60;;
7613;SDS011;3848;42.016;23.098;2022-08-01T07:06:22;4.57;;;3.10;;
7613;SDS011;3848;42.016;23.098;2022-08-01T07:08:49;5.67;;;3.20;;
7613;SDS011;3848;42.016;23.098;2022-08-01T07:11:16;4.53;;;3.27;;
7613;SDS011;3848;42.016;23.098;2022-08-01T07:13:43;4.03;;;2.77;;
7613;SDS011;3848;42.016;23.098;2022-08-01T07:16:10;3.67;;;2.73;;
7613;SDS011;3848;42.016;23.098;2022-08-01T07:18:37;4.10;;;2.97;;
7613;SDS011;3848;42.016;23.098;2022-08-01T07:21:04;4.90;;;2.93;;
7613;SDS011;3848;42.016;23.098;2022-08-01T07:23:32;4.33;;;2.50;;
7613;SDS011;3848;42.016;23.098;2022-08-01T07:25:59;3.20;;;2.77;;
7613;SDS011;3848;42.016;23.098;2022-08-01T07:28:27;4.97;;;3.00;;
7613;SDS011;3848;42.016;23.098;2022-08-01T07:30:54;3.17;;;2.83;;
7613;SDS011;3848;42.016;23.098;2022-08-01T07:33:21;5.07;;;3.07;;
7613;SDS011;3848;42.016;23.098;2022-08-01T07:35:48;5.80;;;3.60;;
7613;SDS011;3848;42.016;23.098;2022-08-01T07:38:15;8.77;;;3.57;;
7613;SDS011;3848;42.016;23.098;2022-08-01T07:40:43;6.23;;;3.30;;
7613;SDS011;3848;42.016;23.098;2022-08-01T07:43:10;6.30;;;3.20;;
7613;SDS011;3848;42.016;23.098;2022-08-01T07:45:37;5.13;;;3.07;;
7613;SDS011;3848;42.016;23.098;2022-08-01T07:48:04;3.10;;;2.80;;
7613;SDS011;3848;42.016;23.098;2022-08-01T07:50:32;4.10;;;2.43;;
7613;SDS011;3848;42.016;23.098;2022-08-01T07:53:00;4.03;;;2.00;;
7613;SDS011;3848;42.016;23.098;2022-08-01T07:55:28;3.20;;;2.10;;
7613;SDS011;3848;42.016;23.098;2022-08-01T07:57:56;4.30;;;3.60;;
7613;SDS011;3848;42.016;23.098;2022-08-01T08:00:24;4.70;;;2.97;;
7613;SDS011;3848;42.016;23.098;2022-08-01T08:02:52;5.63;;;2.57;;
7613;SDS011;3848;42.016;23.098;2022-08-01T08:05:19;3.60;;;2.80;;
7613;SDS011;3848;42.016;23.098;2022-08-01T08:07:46;4.13;;;2.43;;
7613;SDS011;3848;42.016;23.098;2022-08-01T08:10:13;4.93;;;3.07;;
7613;SDS011;3848;42.016;23.098;2022-08-01T08:12:40;3.33;;;2.23;;
7613;SDS011;3848;42.016;23.098;2022-08-01T08:15:09;7.37;;;2.50;;
7613;SDS011;3848;42.016;23.098;2022-08-01T08:17:36;4.23;;;2.23;;
7613;SDS011;3848;42.016;23.098;2022-08-01T08:20:04;4.67;;;2.40;;
7613;SDS011;3848;42.016;23.098;2022-08-01T08:22:32;6.50;;;2.80;;
7613;SDS011;3848;42.016;23.098;2022-08-01T08:24:59;7.73;;;2.60;;
7613;SDS011;3848;42.016;23.098;2022-08-01T08:27:25;5.70;;;2.67;;
7613;SDS011;3848;42.016;23.098;2022-08-01T08:29:53;7.23;;;2.63;;
7613;SDS011;3848;42.016;23.098;2022-08-01T08:32:21;5.70;;;2.77;;
7613;SDS011;3848;42.016;23.098;2022-08-01T08:34:48;10.83;;;2.80;;
7613;SDS011;3848;42.016;23.098;2022-08-01T08:37:15;6.30;;;2.13;;
7613;SDS011;3848;42.016;23.098;2022-08-01T08:39:42;7.67;;;3.00;;
7613;SDS011;3848;42.016;23.098;2022-08-01T08:42:09;6.83;;;2.73;;
7613;SDS011;3848;42.016;23.098;2022-08-01T08:44:37;4.27;;;3.37;;
7613;SDS011;3848;42.016;23.098;2022-08-01T08:47:04;8.07;;;2.97;;
7613;SDS011;3848;42.016;23.098;2022-08-01T08:49:34;2.97;;;2.50;;
7613;SDS011;3848;42.016;23.098;2022-08-01T08:52:02;8.23;;;2.70;;
7613;SDS011;3848;42.016;23.098;2022-08-01T08:54:30;6.13;;;3.00;;
7613;SDS011;3848;42.016;23.098;2022-08-01T08:56:59;6.67;;;2.67;;
7613;SDS011;3848;42.016;23.098;2022-08-01T08:59:27;4.37;;;2.90;;
7613;SDS011;3848;42.016;23.098;2022-08-01T09:01:54;5.40;;;2.60;;
7613;SDS011;3848;42.016;23.098;2022-08-01T09:04:21;5.37;;;2.33;;
7613;SDS011;3848;42.016;23.098;2022-08-01T09:06:50;5.70;;;2.73;;
7613;SDS011;3848;42.016;23.098;2022-08-01T09:09:16;7.63;;;2.87;;
7613;SDS011;3848;42.016;23.098;2022-08-01T09:11:44;9.20;;;3.20;;
7613;SDS011;3848;42.016;23.098;2022-08-01T09:14:12;6.10;;;2.93;;
7613;SDS011;3848;42.016;23.098;2022-08-01T09:16:40;4.43;;;2.37;;
7613;SDS011;3848;42.016;23.098;2022-08-01T09:19:12;2.53;;;1.83;;
7613;SDS011;3848;42.016;23.098;2022-08-01T09:21:41;2.77;;;2.53;;
7613;SDS011;3848;42.016;23.098;2022-08-01T09:24:24;4.93;;;2.50;;
7613;SDS011;3848;42.016;23.098;2022-08-01T09:26:51;2.60;;;2.03;;
7613;SDS011;3848;42.016;23.098;2022-08-01T09:29:20;2.77;;;1.80;;
7613;SDS011;3848;42.016;23.098;2022-08-01T09:31:48;7.33;;;2.57;;
7613;SDS011;3848;42.016;23.098;2022-08-01T09:34:23;2.93;;;2.30;;
7613;SDS011;3848;42.016;23.098;2022-08-01T09:36:52;4.63;;;2.43;;
7613;SDS011;3848;42.016;23.098;2022-08-01T09:39:22;3.33;;;2.07;;
7613;SDS011;3848;42.016;23.098;2022-08-01T09:41:51;5.87;;;2.47;;
7613;SDS011;3848;42.016;23.098;2022-08-01T09:44:24;4.37;;;2.27;;
7613;SDS011;3848;42.016;23.098;2022-08-01T09:47:03;7.80;;;2.50;;
7613;SDS011;3848;42.016;23.098;2022-08-01T09:49:30;5.63;;;2.07;;
7613;SDS011;3848;42.016;23.098;2022-08-01T09:52:00;5.83;;;2.07;;
7613;SDS011;3848;42.016;23.098;2022-08-01T09:54:44;4.13;;;2.33;;
7613;SDS011;3848;42.016;23.098;2022-08-01T09:57:19;2.63;;;1.83;;
7613;SDS011;3848;42.016;23.098;2022-08-01T09:59:48;6.77;;;2.17;;
7613;SDS011;3848;42.016;23.098;2022-08-01T10:02:26;2.97;;;2.07;;
7613;SDS011;3848;42.016;23.098;2022-08-01T10:04:55;2.83;;;2.03;;
7613;SDS011;3848;42.016;23.098;2022-08-01T10:07:24;6.23;;;2.40;;
7613;SDS011;3848;42.016;23.098;2022-08-01T10:09:52;12.47;;;2.40;;
7613;SDS011;3848;42.016;23.098;2022-08-01T10:12:20;10.07;;;2.80;;
7613;SDS011;3848;42.016;23.098;2022-08-01T10:14:50;2.73;;;2.10;;
7613;SDS011;3848;42.016;23.098;2022-08-01T10:17:20;5.67;;;2.63;;
7613;SDS011;3848;42.016;23.098;2022-08-01T10:19:51;2.93;;;2.23;;
7613;SDS011;3848;42.016;23.098;2022-08-01T10:22:22;2.50;;;2.27;;
7613;SDS011;3848;42.016;23.098;2022-08-01T10:24:54;3.63;;;2.57;;
7613;SDS011;3848;42.016;23.098;2022-08-01T10:27:22;2.53;;;2.30;;
7613;SDS011;3848;42.016;23.098;2022-08-01T10:29:51;13.33;;;2.23;;
7613;SDS011;3848;42.016;23.098;2022-08-01T10:32:23;4.10;;;2.40;;
7613;SDS011;3848;42.016;23.098;2022-08-01T10:34:50;9.47;;;2.47;;
7613;SDS011;3848;42.016;23.098;2022-08-01T10:37:18;2.23;;;2.03;;
7613;SDS011;3848;42.016;23.098;2022-08-01T10:39:45;2.63;;;1.93;;
7613;SDS011;3848;42.016;23.098;2022-08-01T10:42:13;6.33;;;2.07;;
7613;SDS011;3848;42.016;23.098;2022-08-01T10:44:40;5.03;;;2.13;;
7613;SDS011;3848;42.016;23.098;2022-08-01T10:47:11;3.17;;;2.10;;
7613;SDS011;3848;42.016;23.098;2022-08-01T10:49:41;6.53;;;2.37;;
7613;SDS011;3848;42.016;23.098;2022-08-01T10:52:15;3.10;;;2.60;;
7613;SDS011;3848;42.016;23.098;2022-08-01T10:54:42;3.40;;;1.80;;
7613;SDS011;3848;42.016;23.098;2022-08-01T10:57:09;3.37;;;2.17;;
7613;SDS011;3848;42.016;23.098;2022-08-01T10:59:47;2.83;;;1.93;;
7613;SDS011;3848;42.016;23.098;2022-08-01T11:02:19;3.43;;;1.80;;
7613;SDS011;3848;42.016;23.098;2022-08-01T11:04:54;3.20;;;1.93;;
7613;SDS011;3848;42.016;23.098;2022-08-01T11:07:24;4.30;;;1.97;;
7613;SDS011;3848;42.016;23.098;2022-08-01T11:10:10;3.80;;;2.00;;
7613;SDS011;3848;42.016;23.098;2022-08-01T11:12:45;3.73;;;1.90;;
7613;SDS011;3848;42.016;23.098;2022-08-01T11:15:18;1.73;;;1.60;;
7613;SDS011;3848;42.016;23.098;2022-08-01T11:17:52;2.43;;;1.97;;
7613;SDS011;3848;42.016;23.098;2022-08-01T11:20:20;2.40;;;1.80;;
7613;SDS011;3848;42.016;23.098;2022-08-01T11:28:33;2.78;;;1.67;;
7613;SDS011;3848;42.016;23.098;2022-08-01T11:33:56;2.13;;;1.93;;
7613;SDS011;3848;42.016;23.098;2022-08-01T11:36:23;2.47;;;2.13;;
7613;SDS011;3848;42.016;23.098;2022-08-01T11:41:40;1.80;;;1.70;;
7613;SDS011;3848;42.016;23.098;2022-08-01T11:44:08;2.83;;;2.40;;
7613;SDS011;3848;42.016;23.098;2022-08-01T11:49:43;2.28;;;1.92;;
7613;SDS011;3848;42.016;23.098;2022-08-01T11:52:14;3.20;;;1.75;;
7613;SDS011;3848;42.016;23.098;2022-08-01T11:54:43;1.77;;;1.67;;
7613;SDS011;3848;42.016;23.098;2022-08-01T11:57:11;1.88;;;1.67;;
7613;SDS011;3848;42.016;23.098;2022-08-01T11:59:41;5.60;;;2.45;;
7613;SDS011;3848;42.016;23.098;2022-08-01T12:02:16;4.72;;;1.88;;
7613;SDS011;3848;42.016;23.098;2022-08-01T12:04:45;6.28;;;2.88;;
7613;SDS011;3848;42.016;23.098;2022-08-01T12:07:22;2.77;;;2.37;;
7613;SDS011;3848;42.016;23.098;2022-08-01T12:10:00;7.20;;;2.08;;
7613;SDS011;3848;42.016;23.098;2022-08-01T12:12:30;3.20;;;1.80;;
7613;SDS011;3848;42.016;23.098;2022-08-01T12:15:02;3.80;;;2.33;;
7613;SDS011;3848;42.016;23.098;2022-08-01T12:17:35;7.43;;;2.58;;
7613;SDS011;3848;42.016;23.098;2022-08-01T12:20:04;2.60;;;1.92;;
7613;SDS011;3848;42.016;23.098;2022-08-01T12:22:32;6.03;;;1.98;;
7613;SDS011;3848;42.016;23.098;2022-08-01T12:25:06;2.10;;;1.90;;
7613;SDS011;3848;42.016;23.098;2022-08-01T12:27:35;2.30;;;1.83;;
7613;SDS011;3848;42.016;23.098;2022-08-01T12:30:04;1.67;;;1.58;;
7613;SDS011;3848;42.016;23.098;2022-08-01T12:32:35;3.47;;;2.30;;
7613;SDS011;3848;42.016;23.098;2022-08-01T12:35:04;2.40;;;1.80;;
7613;SDS011;3848;42.016;23.098;2022-08-01T12:37:34;2.27;;;2.07;;
7613;SDS011;3848;42.016;23.098;2022-08-01T12:40:06;4.97;;;1.83;;
7613;SDS011;3848;42.016;23.098;2022-08-01T12:42:36;3.00;;;1.87;;
7613;SDS011;3848;42.016;23.098;2022-08-01T12:45:04;2.83;;;1.90;;
7613;SDS011;3848;42.016;23.098;2022-08-01T12:47:35;3.75;;;1.80;;
7613;SDS011;3848;42.016;23.098;2022-08-01T12:50:05;3.00;;;1.60;;
7613;SDS011;3848;42.016;23.098;2022-08-01T12:52:34;4.35;;;2.20;;
7613;SDS011;3848;42.016;23.098;2022-08-01T12:55:02;4.70;;;1.83;;
7613;SDS011;3848;42.016;23.098;2022-08-01T12:57:31;5.13;;;2.03;;
7613;SDS011;3848;42.016;23.098;2022-08-01T13:00:06;4.40;;;2.97;;
7613;SDS011;3848;42.016;23.098;2022-08-01T13:02:36;2.13;;;1.63;;
7613;SDS011;3848;42.016;23.098;2022-08-01T13:05:04;4.18;;;1.80;;
7613;SDS011;3848;42.016;23.098;2022-08-01T13:07:38;3.30;;;1.75;;
7613;SDS011;3848;42.016;23.098;2022-08-01T13:10:07;3.45;;;1.90;;
7613;SDS011;3848;42.016;23.098;2022-08-01T13:12:35;4.15;;;2.13;;
7613;SDS011;3848;42.016;23.098;2022-08-01T13:15:18;2.03;;;1.83;;
7613;SDS011;3848;42.016;23.098;2022-08-01T13:17:50;3.03;;;1.60;;
7613;SDS011;3848;42.016;23.098;2022-08-01T13:20:27;5.47;;;1.77;;
7613;SDS011;3848;42.016;23.098;2022-08-01T13:23:09;2.50;;;1.88;;
7613;SDS011;3848;42.016;23.098;2022-08-01T13:25:48;6.85;;;2.03;;
7613;SDS011;3848;42.016;23.098;2022-08-01T13:28:17;2.03;;;1.90;;
7613;SDS011;3848;42.016;23.098;2022-08-01T13:30:55;1.80;;;1.70;;
7613;SDS011;3848;42.016;23.098;2022-08-01T13:33:26;3.30;;;1.88;;
7613;SDS011;3848;42.016;23.098;2022-08-01T13:35:55;1.75;;;1.65;;
7613;SDS011;3848;42.016;23.098;2022-08-01T13:38:22;2.20;;;1.77;;
7613;SDS011;3848;42.016;23.098;2022-08-01T13:41:03;3.35;;;1.90;;
7613;SDS011;3848;42.016;23.098;2022-08-01T13:43:30;1.92;;;1.75;;
7613;SDS011;3848;42.016;23.098;2022-08-01T13:45:57;2.08;;;1.73;;
7613;SDS011;3848;42.016;23.098;2022-08-01T13:48:24;4.32;;;1.65;;
7613;SDS011;3848;42.016;23.098;2022-08-01T13:50:52;7.15;;;2.30;;
7613;SDS011;3848;42.016;23.098;2022-08-01T13:53:19;1.65;;;1.52;;
7613;SDS011;3848;42.016;23.098;2022-08-01T13:55:45;9.38;;;4.75;;
7613;SDS011;3848;42.016;23.098;2022-08-01T13:58:12;4.63;;;1.73;;
7613;SDS011;3848;42.016;23.098;2022-08-01T14:00:40;5.07;;;1.95;;
7613;SDS011;3848;42.016;23.098;2022-08-01T14:03:07;2.17;;;1.80;;
7613;SDS011;3848;42.016;23.098;2022-08-01T14:05:36;2.35;;;1.90;;
7613;SDS011;3848;42.016;23.098;2022-08-01T14:08:03;1.85;;;1.75;;
7613;SDS011;3848;42.016;23.098;2022-08-01T14:10:30;2.20;;;2.00;;
7613;SDS011;3848;42.016;23.098;2022-08-01T14:12:57;2.50;;;1.85;;
7613;SDS011;3848;42.016;23.098;2022-08-01T14:15:24;4.45;;;2.33;;
7613;SDS011;3848;42.016;23.098;2022-08-01T14:17:51;2.10;;;1.90;;
7613;SDS011;3848;42.016;23.098;2022-08-01T14:20:19;3.28;;;2.25;;
7613;SDS011;3848;42.016;23.098;2022-08-01T14:22:47;2.58;;;2.17;;
7613;SDS011;3848;42.016;23.098;2022-08-01T14:25:14;5.18;;;4.07;;
7613;SDS011;3848;42.016;23.098;2022-08-01T14:27:43;4.80;;;2.17;;
7613;SDS011;3848;42.016;23.098;2022-08-01T14:30:10;3.55;;;2.20;;
7613;SDS011;3848;42.016;23.098;2022-08-01T14:32:38;2.47;;;2.17;;
7613;SDS011;3848;42.016;23.098;2022-08-01T14:35:05;2.45;;;2.17;;
7613;SDS011;3848;42.016;23.098;2022-08-01T14:37:32;3.22;;;2.20;;
7613;SDS011;3848;42.016;23.098;2022-08-01T14:40:01;5.25;;;2.20;;
7613;SDS011;3848;42.016;23.098;2022-08-01T14:42:30;3.55;;;1.98;;
7613;SDS011;3848;42.016;23.098;2022-08-01T14:44:57;2.37;;;2.20;;
7613;SDS011;3848;42.016;23.098;2022-08-01T14:47:24;2.63;;;2.10;;
7613;SDS011;3848;42.016;23.098;2022-08-01T14:49:51;11.53;;;2.70;;
7613;SDS011;3848;42.016;23.098;2022-08-01T14:52:18;4.27;;;2.40;;
7613;SDS011;3848;42.016;23.098;2022-08-01T14:54:46;2.88;;;2.22;;
7613;SDS011;3848;42.016;23.098;2022-08-01T14:57:14;3.15;;;2.13;;
7613;SDS011;3848;42.016;23.098;2022-08-01T14:59:43;6.07;;;2.67;;
7613;SDS011;3848;42.016;23.098;2022-08-01T15:02:10;4.10;;;2.37;;
7613;SDS011;3848;42.016;23.098;2022-08-01T15:04:41;2.30;;;2.13;;
7613;SDS011;3848;42.016;23.098;2022-08-01T15:07:09;2.73;;;2.30;;
7613;SDS011;3848;42.016;23.098;2022-08-01T15:09:36;1.97;;;1.80;;
7613;SDS011;3848;42.016;23.098;2022-08-01T15:12:03;2.80;;;2.40;;
7613;SDS011;3848;42.016;23.098;2022-08-01T15:14:31;2.17;;;2.07;;
7613;SDS011;3848;42.016;23.098;2022-08-01T15:17:17;4.43;;;2.53;;
7613;SDS011;3848;42.016;23.098;2022-08-01T15:19:45;3.43;;;2.10;;
7613;SDS011;3848;42.016;23.098;2022-08-01T15:22:12;2.37;;;2.23;;
7613;SDS011;3848;42.016;23.098;2022-08-01T15:24:40;3.37;;;2.10;;